createdAt,value
2023-11-24T00:01:40.128Z,99306.41
2023-11-24T00:04:07.142Z,99309.91
2023-11-24T00:06:33.887Z,99307.50
2023-11-24T00:09:00.450Z,99303.19
2023-11-24T00:11:27.756Z,99288.84
2023-11-24T00:13:54.858Z,99285.50
2023-11-24T00:16:22.795Z,99280.47
2023-11-24T00:18:49.492Z,99268.63
2023-11-24T00:23:42.711Z,99274.31
2023-11-24T00:26:09.341Z,99277.13
2023-11-24T00:28:40.398Z,99261.91
2023-11-24T00:31:08.277Z,99259.25
2023-11-24T00:33:38.754Z,99260.13
2023-11-24T00:36:07.246Z,99253.22
2023-11-24T00:38:33.811Z,99250.75
2023-11-24T00:41:01.397Z,99236.97
2023-11-24T00:43:28.008Z,99234.75
2023-11-24T00:45:54.818Z,99231.16
2023-11-24T00:50:49.225Z,99224.56
2023-11-24T00:53:15.679Z,99216.22
2023-11-24T00:55:42.177Z,99220.63
2023-11-24T00:58:08.632Z,99221.34
2023-11-24T01:00:35.083Z,99234.41
2023-11-24T01:03:01.646Z,99228.41
2023-11-24T01:05:30.775Z,99236.88
2023-11-24T01:07:59.250Z,99237.03
2023-11-24T01:10:25.848Z,99234.56
2023-11-24T01:12:55.002Z,99238.00
2023-11-24T01:15:21.953Z,99226.78
2023-11-24T01:17:48.734Z,99230.97
2023-11-24T01:20:17.700Z,99226.78
2023-11-24T01:22:45.869Z,99212.28
2023-11-24T01:25:13.042Z,99208.84
2023-11-24T01:27:39.819Z,99202.91
2023-11-24T01:30:10.744Z,99193.59
2023-11-24T01:32:37.691Z,99194.44
2023-11-24T01:35:05.276Z,99190.34
2023-11-24T01:37:31.905Z,99202.19
2023-11-24T01:39:58.445Z,99196.34
2023-11-24T01:42:24.969Z,99186.94
2023-11-24T01:44:51.432Z,99179.22
2023-11-24T01:47:17.894Z,99178.56
2023-11-24T01:49:46.859Z,99183.59
2023-11-24T01:52:15.045Z,99183.75
2023-11-24T01:54:42.211Z,99190.41
2023-11-24T01:57:09.051Z,99170.22
2023-11-24T01:59:36.511Z,99151.31
2023-11-24T02:02:03.820Z,99174.53
2023-11-24T02:04:31.038Z,99166.69
2023-11-24T02:06:58.689Z,99169.41
2023-11-24T02:09:25.674Z,99168.59
2023-11-24T02:11:52.174Z,99161.06
2023-11-24T02:14:18.716Z,99160.31
2023-11-24T02:16:46.070Z,99149.34
2023-11-24T02:19:12.848Z,99156.22
2023-11-24T02:21:39.374Z,99144.06
2023-11-24T02:24:07.137Z,99143.50
2023-11-24T02:26:33.570Z,99143.50
2023-11-24T02:29:00.061Z,99142.88
2023-11-24T02:31:26.591Z,99135.16
2023-11-24T02:33:54.010Z,99143.78
2023-11-24T02:36:28.557Z,99118.00
2023-11-24T02:38:55.202Z,99095.94
2023-11-24T02:41:25.888Z,99090.00
2023-11-24T02:43:52.464Z,99085.59
2023-11-24T02:46:18.924Z,99092.44
2023-11-24T02:48:45.695Z,99092.56
2023-11-24T02:51:12.515Z,99090.00
2023-11-24T02:53:39.182Z,99067.72
2023-11-24T02:56:06.574Z,99078.13
2023-11-24T02:58:34.786Z,99078.28
2023-11-24T03:01:02.366Z,99068.00
2023-11-24T03:03:29.697Z,99072.41
2023-11-24T03:05:56.723Z,99083.41
2023-11-24T03:08:24.719Z,99065.41
2023-11-24T03:10:51.177Z,99054.38
2023-11-24T03:13:17.663Z,99051.03
2023-11-24T03:15:44.150Z,99043.38
2023-11-24T03:18:10.653Z,99044.94
2023-11-24T03:20:37.492Z,99040.63
2023-11-24T03:23:04.423Z,99027.25
2023-11-24T03:25:30.888Z,99023.88
2023-11-24T03:27:57.574Z,99013.50
2023-11-24T03:30:28.142Z,99024.69
2023-11-24T03:32:54.584Z,99020.44
2023-11-24T03:35:21.087Z,99022.28
2023-11-24T03:37:47.785Z,99028.13
2023-11-24T03:40:15.359Z,99039.38
2023-11-24T03:42:41.931Z,99034.28
2023-11-24T03:45:08.820Z,99027.41
2023-11-24T03:47:35.338Z,99023.13
2023-11-24T03:50:02.184Z,99023.13
2023-11-24T03:52:28.664Z,99015.53
2023-11-24T03:54:55.196Z,99005.13
2023-11-24T03:57:21.932Z,99026.41
2023-11-24T03:59:48.466Z,99075.94
2023-11-24T04:02:15.008Z,99068.03
2023-11-24T04:04:41.529Z,99076.53
2023-11-24T04:07:08.024Z,99070.94
2023-11-24T04:09:34.800Z,99071.53
2023-11-24T04:12:01.364Z,99067.69
2023-11-24T04:14:27.841Z,99071.44
2023-11-24T04:16:54.286Z,99070.59
2023-11-24T04:19:21.685Z,99066.44
2023-11-24T04:21:48.177Z,99062.38
2023-11-24T04:24:14.657Z,99063.41
2023-11-24T04:26:41.182Z,99059.13
2023-11-24T04:29:07.911Z,99062.47
2023-11-24T04:31:34.394Z,99052.97
2023-11-24T04:34:01.545Z,99042.78
2023-11-24T04:36:29.487Z,99053.13
2023-11-24T04:38:55.953Z,99044.69
2023-11-24T04:41:22.429Z,99041.91
2023-11-24T04:43:48.855Z,99046.16
2023-11-24T04:46:15.422Z,99044.94
2023-11-24T04:48:43.317Z,99045.38
2023-11-24T04:51:09.862Z,99038.50
2023-11-24T04:53:37.864Z,99039.13
2023-11-24T04:56:06.707Z,99032.59
2023-11-24T04:58:33.660Z,99038.03
2023-11-24T05:01:00.224Z,99033.88
2023-11-24T05:03:26.808Z,99039.47
2023-11-24T05:05:53.399Z,99037.59
2023-11-24T05:08:21.188Z,99033.41
2023-11-24T05:10:47.696Z,99033.25
2023-11-24T05:13:14.754Z,99037.72
2023-11-24T05:15:41.221Z,99027.50
2023-11-24T05:18:08.674Z,99023.25
2023-11-24T05:20:35.371Z,99025.66
2023-11-24T05:23:01.795Z,99013.38
2023-11-24T05:25:28.630Z,99019.22
2023-11-24T05:27:55.126Z,99012.63
2023-11-24T05:30:21.624Z,99014.88
2023-11-24T05:32:48.181Z,99021.44
2023-11-24T05:35:14.701Z,99023.13
2023-11-24T05:37:41.177Z,99025.97
2023-11-24T05:40:09.810Z,99025.09
2023-11-24T05:42:36.358Z,99021.56
2023-11-24T05:45:03.357Z,99023.16
2023-11-24T05:47:30.595Z,99023.56
2023-11-24T05:49:57.413Z,99009.91
2023-11-24T05:52:24.760Z,99007.09
2023-11-24T05:54:51.388Z,99014.84
2023-11-24T05:57:17.859Z,99015.31
2023-11-24T05:59:44.412Z,99009.00
2023-11-24T06:02:11.016Z,99006.53
2023-11-24T06:04:37.672Z,99010.84
2023-11-24T06:07:05.483Z,99018.81
2023-11-24T06:09:34.082Z,99011.78
2023-11-24T06:12:00.609Z,99009.47
2023-11-24T06:14:27.096Z,99012.88
2023-11-24T06:16:53.762Z,99009.38
2023-11-24T06:19:20.321Z,99018.19
2023-11-24T06:21:46.831Z,99017.94
2023-11-24T06:24:14.699Z,99016.72
2023-11-24T06:26:41.222Z,99017.66
2023-11-24T06:29:07.681Z,99019.44
2023-11-24T06:31:34.173Z,99021.75
2023-11-24T06:34:00.681Z,99017.78
2023-11-24T06:36:27.268Z,99015.22
2023-11-24T06:38:53.795Z,99029.50
2023-11-24T06:41:20.502Z,99029.66
2023-11-24T06:43:47.062Z,99040.34
2023-11-24T06:46:13.743Z,99052.78
2023-11-24T06:48:40.480Z,99054.00
2023-11-24T06:51:08.244Z,99048.34
2023-11-24T06:53:35.781Z,99043.16
2023-11-24T06:56:02.247Z,99052.66
2023-11-24T06:58:28.860Z,99046.75
2023-11-24T07:00:55.677Z,99046.75
2023-11-24T07:03:22.243Z,99042.19
2023-11-24T07:05:48.787Z,99042.72
2023-11-24T07:08:17.859Z,99030.75
2023-11-24T07:10:45.246Z,99034.47
2023-11-24T07:13:11.925Z,99023.13
2023-11-24T07:15:39.303Z,99020.56
2023-11-24T07:18:05.904Z,99035.72
2023-11-24T07:20:32.380Z,99030.72
2023-11-24T07:22:59.367Z,99025.88
2023-11-24T07:25:27.231Z,99023.75
2023-11-24T07:27:53.718Z,99029.41
2023-11-24T07:30:20.275Z,99031.16
2023-11-24T07:32:46.903Z,99020.94
2023-11-24T07:35:15.197Z,99032.03
2023-11-24T07:37:41.915Z,99017.97
2023-11-24T07:40:14.988Z,99027.28
2023-11-24T07:42:44.627Z,99030.13
2023-11-24T07:45:12.005Z,99032.84
2023-11-24T07:47:38.564Z,99023.41
2023-11-24T07:50:05.722Z,99026.22
2023-11-24T07:52:32.257Z,99031.50
2023-11-24T07:54:58.730Z,99029.38
2023-11-24T07:57:26.313Z,99024.25
2023-11-24T07:59:53.686Z,99031.47
2023-11-24T08:02:20.231Z,99028.81
2023-11-24T08:04:46.909Z,99025.56
2023-11-24T08:07:13.738Z,99028.66
2023-11-24T08:09:40.260Z,99024.75
2023-11-24T08:12:11.645Z,99019.56
2023-11-24T08:14:40.541Z,99013.91
2023-11-24T08:17:07.198Z,99015.56
2023-11-24T08:19:33.752Z,99017.25
2023-11-24T08:22:00.270Z,99019.81
2023-11-24T08:24:27.172Z,99018.06
2023-11-24T08:26:53.659Z,99012.25
2023-11-24T08:29:20.140Z,99005.13
2023-11-24T08:31:49.297Z,99005.19
2023-11-24T08:34:17.082Z,99004.25
2023-11-24T08:36:43.678Z,98999.63
2023-11-24T08:39:14.378Z,98995.13
2023-11-24T08:41:45.563Z,98999.38
2023-11-24T08:44:13.323Z,98990.03
2023-11-24T08:46:40.288Z,98991.25
2023-11-24T08:49:10.125Z,98996.03
2023-11-24T08:51:36.755Z,98980.47
2023-11-24T08:54:04.806Z,98984.97
2023-11-24T08:56:32.979Z,98975.53
2023-11-24T08:58:59.566Z,98964.59
2023-11-24T09:01:26.090Z,98961.50
2023-11-24T09:03:53.474Z,98948.38
2023-11-24T09:06:30.072Z,98945.84
2023-11-24T09:08:59.669Z,98943.09
2023-11-24T09:11:29.049Z,98938.38
2023-11-24T09:13:55.647Z,98939.41
2023-11-24T09:16:22.870Z,98926.94
2023-11-24T09:18:49.763Z,98928.72
2023-11-24T09:21:18.794Z,98937.72
2023-11-24T09:23:46.054Z,98932.53
2023-11-24T09:26:13.660Z,98938.28
2023-11-24T09:28:40.609Z,98933.13
2023-11-24T09:31:10.303Z,98921.44
2023-11-24T09:33:40.270Z,98921.66
2023-11-24T09:36:07.839Z,98917.34
2023-11-24T09:38:37.101Z,98915.13
2023-11-24T09:41:12.666Z,98916.28
2023-11-24T09:43:39.816Z,98912.84
2023-11-24T09:46:07.985Z,98921.81
2023-11-24T09:48:35.647Z,98911.09
2023-11-24T09:51:08.327Z,98911.66
2023-11-24T09:53:35.123Z,98904.06
2023-11-24T09:56:04.811Z,98904.06
2023-11-24T09:58:34.560Z,98906.31
2023-11-24T10:01:15.301Z,98897.53
2023-11-24T10:03:46.960Z,98905.03
2023-11-24T10:06:14.380Z,98898.50
2023-11-24T10:08:41.467Z,98901.84
2023-11-24T10:11:15.926Z,98889.41
2023-11-24T10:13:49.371Z,98872.47
2023-11-24T10:16:17.545Z,98881.66
2023-11-24T10:18:44.477Z,98867.00
2023-11-24T10:21:23.078Z,98870.38
2023-11-24T10:23:59.411Z,98864.09
2023-11-24T10:26:26.448Z,98849.09
2023-11-24T10:28:53.636Z,98847.75
2023-11-24T10:31:21.049Z,98844.00
2023-11-24T10:33:48.176Z,98835.94
2023-11-24T10:36:17.681Z,98816.34
2023-11-24T10:38:45.264Z,98818.53
2023-11-24T10:41:24.627Z,98814.22
2023-11-24T10:43:51.825Z,98821.63
2023-11-24T10:46:22.380Z,98802.97
2023-11-24T10:49:02.128Z,98806.25
2023-11-24T10:51:46.273Z,98792.66
2023-11-24T10:54:35.289Z,98792.00
2023-11-24T10:57:03.624Z,98785.72
2023-11-24T10:59:35.387Z,98779.50
2023-11-24T11:02:08.061Z,98780.38
2023-11-24T11:04:36.650Z,98781.69
2023-11-24T11:07:28.642Z,98778.78
2023-11-24T11:10:00.153Z,98762.53
2023-11-24T11:12:44.373Z,98770.56
2023-11-24T11:15:11.660Z,98763.56
2023-11-24T11:17:39.487Z,98764.22
2023-11-24T11:20:16.298Z,98776.41
2023-11-24T11:22:45.589Z,98762.53
2023-11-24T11:25:21.329Z,98757.50
2023-11-24T11:27:48.307Z,98754.44
2023-11-24T11:30:27.348Z,98757.44
2023-11-24T11:33:25.805Z,98747.19
2023-11-24T11:36:11.121Z,98748.22
2023-11-24T11:38:44.477Z,98729.81
2023-11-24T11:41:11.206Z,98730.84
2023-11-24T11:43:54.274Z,98739.94
2023-11-24T11:46:20.897Z,98739.75
2023-11-24T11:48:47.707Z,98736.38
2023-11-24T11:51:17.842Z,98728.91
2023-11-24T11:53:44.338Z,98726.59
2023-11-24T11:56:13.181Z,98723.56
2023-11-24T11:58:42.305Z,98724.28
2023-11-24T12:01:09.817Z,98727.75
2023-11-24T12:03:36.487Z,98722.28
2023-11-24T12:06:07.067Z,98718.00
2023-11-24T12:08:34.474Z,98715.47
2023-11-24T12:11:01.101Z,98717.38
2023-11-24T12:13:27.671Z,98716.06
2023-11-24T12:15:54.778Z,98708.00
2023-11-24T12:18:21.481Z,98711.06
2023-11-24T12:20:50.930Z,98716.69
2023-11-24T12:23:19.070Z,98713.38
2023-11-24T12:25:45.743Z,98724.63
2023-11-24T12:28:14.786Z,98723.59
2023-11-24T12:30:43.425Z,98715.91
2023-11-24T12:33:16.697Z,98716.59
2023-11-24T12:35:48.054Z,98712.53
2023-11-24T12:38:15.879Z,98712.09
2023-11-24T12:40:44.453Z,98721.38
2023-11-24T12:43:19.081Z,98716.75
2023-11-24T12:45:49.263Z,98704.63
2023-11-24T12:48:25.175Z,98704.00
2023-11-24T12:50:57.556Z,98703.53
2023-11-24T12:53:24.428Z,98723.97
2023-11-24T12:55:50.928Z,98722.59
2023-11-24T12:58:17.431Z,98726.28
2023-11-24T13:00:43.964Z,98735.97
2023-11-24T13:03:11.376Z,98732.72
2023-11-24T13:05:40.641Z,98721.34
2023-11-24T13:08:07.781Z,98719.59
2023-11-24T13:10:35.556Z,98711.28
2023-11-24T13:13:02.893Z,98716.81
2023-11-24T13:15:29.745Z,98725.03
2023-11-24T13:17:59.648Z,98716.13
2023-11-24T13:20:29.871Z,98731.44
2023-11-24T13:22:59.703Z,98720.56
2023-11-24T13:25:30.084Z,98722.63
2023-11-24T13:27:56.925Z,98713.22
2023-11-24T13:30:25.135Z,98708.47
2023-11-24T13:32:52.155Z,98709.88
2023-11-24T13:35:20.633Z,98709.97
2023-11-24T13:37:51.286Z,98713.47
2023-11-24T13:40:21.610Z,98713.63
2023-11-24T13:42:48.717Z,98710.59
2023-11-24T13:45:18.917Z,98709.03
2023-11-24T13:47:45.640Z,98720.69
2023-11-24T13:50:12.926Z,98720.66
2023-11-24T13:52:39.661Z,98709.53
2023-11-24T13:55:07.280Z,98722.13
2023-11-24T13:57:34.147Z,98730.38
2023-11-24T14:00:00.667Z,98720.75
2023-11-24T14:02:27.235Z,98707.22
2023-11-24T14:04:55.558Z,98707.16
2023-11-24T14:07:22.337Z,98706.00
2023-11-24T14:09:49.927Z,98709.59
2023-11-24T14:12:18.156Z,98714.91
2023-11-24T14:14:44.759Z,98715.28
2023-11-24T14:17:13.124Z,98721.31
2023-11-24T14:19:39.924Z,98731.72
2023-11-24T14:22:07.185Z,98733.31
2023-11-24T14:24:34.045Z,98726.63
2023-11-24T14:27:00.813Z,98745.47
2023-11-24T14:29:29.294Z,98729.84
2023-11-24T14:31:56.136Z,98717.59
2023-11-24T14:34:22.730Z,98716.97
2023-11-24T14:36:49.875Z,98728.78
2023-11-24T14:39:32.891Z,98715.59
2023-11-24T14:42:00.170Z,98711.41
2023-11-24T14:44:27.065Z,98719.53
2023-11-24T14:46:53.884Z,98731.94
2023-11-24T14:49:21.041Z,98730.72
2023-11-24T14:51:48.842Z,98723.31
2023-11-24T14:54:17.047Z,98722.09
2023-11-24T14:56:44.589Z,98710.84
2023-11-24T14:59:11.992Z,98726.47
2023-11-24T15:01:39.907Z,98725.63
2023-11-24T15:04:17.874Z,98727.03
2023-11-24T15:06:51.239Z,98731.56
2023-11-24T15:09:18.008Z,98729.84
2023-11-24T15:11:45.373Z,98726.69
2023-11-24T15:14:15.530Z,98722.97
2023-11-24T15:16:58.180Z,98725.78
2023-11-24T15:19:32.254Z,98721.75
2023-11-24T15:22:04.047Z,98726.69
2023-11-24T15:24:33.186Z,98727.63
2023-11-24T15:27:01.484Z,98731.78
2023-11-24T15:29:28.075Z,98733.34
2023-11-24T15:31:54.709Z,98729.28
2023-11-24T15:34:22.851Z,98735.53
2023-11-24T15:36:49.655Z,98735.44
2023-11-24T15:39:35.867Z,98741.38
2023-11-24T15:42:03.573Z,98729.97
2023-11-24T15:44:34.060Z,98736.22
2023-11-24T15:47:03.446Z,98736.22
2023-11-24T15:49:31.151Z,98735.16
2023-11-24T15:51:57.656Z,98733.66
2023-11-24T15:54:27.582Z,98746.81
2023-11-24T15:56:55.312Z,98744.97
2023-11-24T15:59:25.086Z,98746.47
2023-11-24T16:01:53.117Z,98753.09
2023-11-24T16:04:22.332Z,98757.66
2023-11-24T16:06:55.843Z,98761.97
2023-11-24T16:09:25.143Z,98761.69
2023-11-24T16:12:16.465Z,98767.22
2023-11-24T16:14:44.604Z,98765.03
2023-11-24T16:17:11.272Z,98770.44
2023-11-24T16:19:37.990Z,98779.16
2023-11-24T16:22:06.164Z,98776.94
2023-11-24T16:24:33.114Z,98784.66
2023-11-24T16:27:00.148Z,98779.31
2023-11-24T16:29:26.689Z,98783.28
2023-11-24T16:31:55.199Z,98780.25
2023-11-24T16:34:23.850Z,98794.97
2023-11-24T16:36:50.680Z,98802.69
2023-11-24T16:39:23.530Z,98801.94
2023-11-24T16:41:53.674Z,98801.94
2023-11-24T16:44:20.172Z,98806.34
2023-11-24T16:46:58.852Z,98807.78
2023-11-24T16:49:25.671Z,98807.59
2023-11-24T16:51:52.239Z,98807.59
2023-11-24T16:54:18.676Z,98806.63
2023-11-24T16:56:45.196Z,98807.22
2023-11-24T16:59:12.625Z,98803.19
2023-11-24T17:01:39.521Z,98805.63
2023-11-24T17:04:06.084Z,98807.91
2023-11-24T17:06:32.536Z,98808.72
2023-11-24T17:08:59.837Z,98814.88
2023-11-24T17:11:26.390Z,98813.28
2023-11-24T17:13:53.368Z,98804.88
2023-11-24T17:16:21.712Z,98810.53
2023-11-24T17:18:48.332Z,98805.63
2023-11-24T17:21:14.775Z,98810.34
2023-11-24T17:23:41.612Z,98810.34
2023-11-24T17:26:11.092Z,98809.97
2023-11-24T17:28:38.445Z,98808.41
2023-11-24T17:31:09.101Z,98810.34
2023-11-24T17:33:40.409Z,98807.69
2023-11-24T17:36:08.991Z,98813.66
2023-11-24T17:38:35.525Z,98807.91
2023-11-24T17:41:02.877Z,98795.72
2023-11-24T17:43:30.228Z,98802.38
2023-11-24T17:45:57.466Z,98807.53
2023-11-24T17:48:24.924Z,98792.22
2023-11-24T17:50:52.238Z,98804.91
2023-11-24T17:53:19.579Z,98806.88
2023-11-24T17:55:46.076Z,98798.28
2023-11-24T17:58:12.591Z,98798.66
2023-11-24T18:00:40.994Z,98798.75
2023-11-24T18:03:08.625Z,98800.50
2023-11-24T18:05:37.095Z,98807.38
2023-11-24T18:08:04.876Z,98818.41
2023-11-24T18:10:31.862Z,98804.91
2023-11-24T18:12:59.251Z,98822.13
2023-11-24T18:15:29.201Z,98800.13
2023-11-24T18:17:56.353Z,98801.41
2023-11-24T18:20:23.091Z,98797.69
2023-11-24T18:22:49.677Z,98795.06
2023-11-24T18:25:16.217Z,98794.16
2023-11-24T18:27:43.857Z,98799.06
2023-11-24T18:30:11.107Z,98799.25
2023-11-24T18:32:37.815Z,98819.97
2023-11-24T18:35:04.725Z,98813.59
2023-11-24T18:37:31.656Z,98811.75
2023-11-24T18:40:00.988Z,98826.72
2023-11-24T18:42:30.373Z,98819.19
2023-11-24T18:44:56.879Z,98819.00
2023-11-24T18:47:27.245Z,98812.94
2023-11-24T18:49:54.253Z,98803.75
2023-11-24T18:52:21.644Z,98815.88
2023-11-24T18:54:50.940Z,98807.56
2023-11-24T18:57:17.498Z,98822.81
2023-11-24T18:59:43.928Z,98818.03
2023-11-24T19:02:10.504Z,98820.56
2023-11-24T19:04:37.448Z,98815.88
2023-11-24T19:07:04.158Z,98814.09
2023-11-24T19:09:30.825Z,98817.63
2023-11-24T19:11:57.342Z,98809.19
2023-11-24T19:14:23.874Z,98803.34
2023-11-24T19:16:51.334Z,98805.09
2023-11-24T19:19:18.438Z,98819.19
2023-11-24T19:21:45.304Z,98822.72
2023-11-24T19:24:11.861Z,98823.69
2023-11-24T19:26:38.640Z,98830.53
2023-11-24T19:29:10.965Z,98815.47
2023-11-24T19:31:39.385Z,98811.16
2023-11-24T19:34:06.978Z,98817.81
2023-11-24T19:36:33.649Z,98807.66
2023-11-24T19:39:01.323Z,98804.13
2023-11-24T19:41:27.748Z,98812.31
2023-11-24T19:43:54.200Z,98811.19
2023-11-24T19:46:22.302Z,98809.59
2023-11-24T19:48:51.618Z,98803.56
2023-11-24T19:51:18.658Z,98802.38
2023-11-24T19:53:47.423Z,98800.41
2023-11-24T19:56:15.668Z,98796.59
2023-11-24T19:58:43.551Z,98800.00
2023-11-24T20:01:10.114Z,98797.06
2023-11-24T20:03:39.102Z,98788.84
2023-11-24T20:06:07.579Z,98790.31
2023-11-24T20:08:34.368Z,98798.97
2023-11-24T20:11:00.906Z,98801.19
2023-11-24T20:13:27.380Z,98803.94
2023-11-24T20:15:54.066Z,98790.06
2023-11-24T20:18:20.619Z,98797.09
2023-11-24T20:20:47.867Z,98811.19
2023-11-24T20:23:14.780Z,98796.91
2023-11-24T20:25:41.274Z,98794.75
2023-11-24T20:28:10.326Z,98797.47
2023-11-24T20:30:36.889Z,98803.72
2023-11-24T20:33:03.328Z,98810.41
2023-11-24T20:35:30.485Z,98807.56
2023-11-24T20:37:57.221Z,98807.47
2023-11-24T20:40:25.654Z,98805.50
2023-11-24T20:42:52.202Z,98800.72
2023-11-24T20:45:18.670Z,98793.00
2023-11-24T20:47:45.131Z,98787.50
2023-11-24T20:50:11.617Z,98786.53
2023-11-24T20:52:38.166Z,98785.78
2023-11-24T20:55:05.375Z,98778.91
2023-11-24T20:57:31.893Z,98779.88
2023-11-24T20:59:58.376Z,98775.81
2023-11-24T21:02:24.937Z,98776.41
2023-11-24T21:04:51.612Z,98776.00
2023-11-24T21:07:20.175Z,98769.72
2023-11-24T21:09:46.977Z,98758.31
2023-11-24T21:12:13.540Z,98766.81
2023-11-24T21:14:40.087Z,98759.69
2023-11-24T21:17:06.618Z,98770.72
2023-11-24T21:19:33.134Z,98757.03
2023-11-24T21:21:59.698Z,98756.84
2023-11-24T21:24:26.258Z,98771.13
2023-11-24T21:26:52.735Z,98764.66
2023-11-24T21:29:19.187Z,98769.06
2023-11-24T21:31:45.663Z,98777.44
2023-11-24T21:34:12.856Z,98768.88
2023-11-24T21:36:39.582Z,98771.72
2023-11-24T21:39:06.296Z,98774.63
2023-11-24T21:41:34.641Z,98777.19
2023-11-24T21:44:01.450Z,98772.69
2023-11-24T21:46:28.198Z,98769.94
2023-11-24T21:48:54.704Z,98763.88
2023-11-24T21:51:21.210Z,98758.00
2023-11-24T21:53:47.702Z,98752.47
2023-11-24T21:56:14.131Z,98760.47
2023-11-24T21:58:40.829Z,98753.63
2023-11-24T22:01:07.460Z,98741.50
2023-11-24T22:03:34.055Z,98760.06
2023-11-24T22:06:01.033Z,98757.81
2023-11-24T22:08:27.466Z,98760.66
2023-11-24T22:10:54.115Z,98750.78
2023-11-24T22:13:21.011Z,98752.44
2023-11-24T22:15:50.026Z,98745.69
2023-11-24T22:18:17.358Z,98750.00
2023-11-24T22:20:46.801Z,98767.09
2023-11-24T22:23:13.648Z,98772.28
2023-11-24T22:25:40.234Z,98767.00
2023-11-24T22:28:06.963Z,98759.09
2023-11-24T22:30:33.594Z,98764.56
2023-11-24T22:33:00.137Z,98757.94
2023-11-24T22:35:26.723Z,98764.66
2023-11-24T22:37:53.193Z,98770.91
2023-11-24T22:40:19.769Z,98772.88
2023-11-24T22:42:46.528Z,98774.81
2023-11-24T22:45:13.149Z,98776.09
2023-11-24T22:47:42.625Z,98778.91
2023-11-24T22:50:11.243Z,98785.16
2023-11-24T22:52:38.547Z,98792.78
2023-11-24T22:55:06.716Z,98789.81
2023-11-24T22:57:33.904Z,98791.38
2023-11-24T23:00:00.486Z,98791.59
2023-11-24T23:02:27.495Z,98797.84
2023-11-24T23:04:54.010Z,98799.03
2023-11-24T23:07:25.094Z,98786.63
2023-11-24T23:09:53.669Z,98785.88
2023-11-24T23:12:20.386Z,98797.16
2023-11-24T23:14:47.182Z,98797.06
2023-11-24T23:17:13.718Z,98804.88
2023-11-24T23:19:41.665Z,98816.41
2023-11-24T23:22:09.770Z,98816.28
2023-11-24T23:24:36.867Z,98820.47
2023-11-24T23:27:07.252Z,98821.31
2023-11-24T23:29:34.610Z,98824.03
2023-11-24T23:32:01.173Z,98820.34
2023-11-24T23:34:27.728Z,98831.84
2023-11-24T23:36:54.198Z,98855.28
2023-11-24T23:39:20.753Z,98872.34
2023-11-24T23:41:47.196Z,98910.09
2023-11-24T23:44:15.623Z,98866.63
2023-11-24T23:46:42.769Z,98871.56
2023-11-24T23:49:09.673Z,98849.16
2023-11-24T23:51:36.255Z,98850.41
2023-11-24T23:54:03.983Z,98841.34
2023-11-24T23:56:30.535Z,98818.78
2023-11-24T23:58:56.962Z,98818.66
